»·PEaware :: N117AL KCRQ-KSBA

N117AL :: KCRQ-KSBA

FLIGHT INFORMATION

Flight Status: Arrived
Operator: Privately registered:
United States
More flights under this callsign
Pilot: Adam W. (20046)
Aircraft: BOMBARDIER BD-100 CHALLENGER 300
(CL30)
More flights by this aircraft type
Origin: KCRQ McClellan-Palomar
United States
Destination: KSBA Santa Barbara Mun
United States
More flights between these airports :: More routes between these airports
Route: +VTU VTU282 KWANG
File this flight plan on PilotEdge
Remarks: TEC route SANP36R
Altitude:
(Current/Filed)
16,000ft
Speed:
(Current/Filed)
470kts
Departed: 12-Sep-18 05:43 PM
Arrived: 12-Sep-18 06:21 PM
Distance/Time
Traveled:
149nm/0:38
Distance/Time
To Go:
Arrived

Flight Plot

Page will automatically refresh every two minutes.

Flight plan parsing failed; only flown route is shown


Map Options




Map Legend


Flown Route
Filed Route
Departure Airport
Arrival Airport
Navaid (VOR, NDB)
Fix

Horizontal Profiles

Position Reports

Time Latitude Longitude Heading Altitude Ground
Speed
12-Sep-18 17:27 33.125310 -117.282613 349 307ft 0kts
12-Sep-18 17:28 33.125310 -117.282613 349 307ft 0kts
12-Sep-18 17:29 33.125310 -117.282613 348 307ft 0kts
12-Sep-18 17:30 33.125310 -117.282613 349 307ft 0kts
12-Sep-18 17:31 33.125310 -117.282613 349 307ft 0kts
12-Sep-18 17:32 33.125310 -117.282613 349 307ft 0kts
12-Sep-18 17:33 33.125310 -117.282613 349 307ft 0kts
12-Sep-18 17:34 33.125310 -117.282613 349 307ft 0kts
12-Sep-18 17:35 33.125310 -117.282613 349 307ft 0kts
12-Sep-18 17:36 33.125310 -117.282613 349 307ft 0kts
12-Sep-18 17:37 33.125310 -117.282613 349 307ft 0kts
12-Sep-18 17:38 33.125310 -117.282613 349 307ft 0kts
12-Sep-18 17:39 33.125310 -117.282613 349 307ft 0kts
12-Sep-18 17:40 33.125314 -117.282614 347 307ft 0kts
12-Sep-18 17:41 33.126968 -117.282882 76 307ft 9kts
12-Sep-18 17:42 33.128147 -117.275602 79 307ft 17kts
12-Sep-18 17:43 33.128643 -117.272816 50 307ft 0kts
12-Sep-18 17:44 33.128953 -117.272398 47 307ft 8kts
12-Sep-18 17:45 33.128658 -117.277755 258 307ft 114kts
12-Sep-18 17:46 33.114579 -117.351567 260 2710ft 323kts
12-Sep-18 17:47 33.100975 -117.453630 262 5495ft 304kts
12-Sep-18 17:48 33.088167 -117.546835 261 8468ft 303kts
12-Sep-18 17:49 33.074057 -117.651610 260 10013ft 338kts
12-Sep-18 17:50 33.098867 -117.752173 304 10000ft 340kts
12-Sep-18 17:51 33.148433 -117.846256 298 10020ft 336kts
12-Sep-18 17:52 33.199057 -117.944094 298 10031ft 350kts
12-Sep-18 17:53 33.249911 -118.042883 298 10044ft 349kts
12-Sep-18 17:54 33.300627 -118.141769 298 10004ft 349kts
12-Sep-18 17:55 33.378675 -118.196835 12 9981ft 378kts
12-Sep-18 17:56 33.420901 -118.094200 113 9953ft 384kts
12-Sep-18 17:57 33.414416 -117.976980 48 9951ft 385kts
12-Sep-18 17:58 33.504349 -117.974329 306 9941ft 348kts
12-Sep-18 17:59 33.559520 -118.069120 301 9948ft 348kts
12-Sep-18 18:00 33.614402 -118.164772 301 9947ft 350kts
12-Sep-18 18:01 33.669548 -118.261174 301 9950ft 350kts
12-Sep-18 18:02 33.724340 -118.357202 301 9963ft 349kts
12-Sep-18 18:03 33.779093 -118.453419 301 9989ft 348kts
12-Sep-18 18:04 33.833596 -118.549454 301 9992ft 348kts
12-Sep-18 18:05 33.888083 -118.645718 301 9995ft 349kts
12-Sep-18 18:06 33.941735 -118.740754 300 10003ft 350kts
12-Sep-18 18:07 33.996280 -118.837632 301 10002ft 342kts
12-Sep-18 18:08 34.047281 -118.928446 301 10008ft 320kts
12-Sep-18 18:09 34.097014 -119.017254 301 10009ft 322kts
12-Sep-18 18:10 34.140886 -119.111962 295 10006ft 325kts
12-Sep-18 18:11 34.181663 -119.208553 295 9328ft 318kts
12-Sep-18 18:12 34.220832 -119.302064 295 6929ft 308kts
12-Sep-18 18:13 34.257053 -119.388802 294 5833ft 244kts
12-Sep-18 18:14 34.283615 -119.452636 294 4824ft 205kts
12-Sep-18 18:15 34.308115 -119.511560 294 4014ft 186kts
12-Sep-18 18:16 34.331426 -119.567675 294 3670ft 191kts
12-Sep-18 18:17 34.355059 -119.625460 294 3015ft 189kts
12-Sep-18 18:18 34.383025 -119.677272 302 2733ft 186kts
12-Sep-18 18:19 34.413913 -119.723572 308 2051ft 161kts
12-Sep-18 18:20 34.430076 -119.764468 264 1033ft 130kts
12-Sep-18 18:21 34.428663 -119.809801 263 444ft 130kts
12-Sep-18 18:22 34.427590 -119.848139 267 17ft 53kts
12-Sep-18 18:23 34.427028 -119.851575 183 17ft 0kts
12-Sep-18 18:24 34.426479 -119.848256 88 17ft 22kts
12-Sep-18 18:25 34.426624 -119.841229 88 17ft 15kts
12-Sep-18 18:26 34.424734 -119.837741 165 17ft 24kts
12-Sep-18 18:27 34.422939 -119.836218 354 17ft 0kts
12-Sep-18 18:28 34.422939 -119.836218 354 17ft 0kts

Navigation Log

Ident Type
Flight plan parsing failed, navigation log unavailable